Arenas Valley, NM

12:51 PM MDT on September 20, 2014 (GMT -0600)
NM5SD | Change Station
CLOSE
Current Station
Personal Weather Station
Location: Silver City, NM
Elevation: 6165 ft
Nearby Weather Stations

Elev 6165 ft 32.79 °N, 108.23 °W | Updated 53 seconds ago

Partly Cloudy
Partly Cloudy
78.3 °F
Feels Like 80 °F
N
3.0
Wind Variable Wind from SSE
Gusts 3.0 mph

Today
High -- | Low -- °F
--% Chance of Precip.
Yesterday
High -- | Low -- °F
Precip. -- in
6:59 AM 7:12 PM
Waning Crescent, 11% visible
Pressure 30.18 in
Visibility 10.0 miles
Clouds Scattered Clouds 3400 ft
Mostly Cloudy 5500 ft
Mostly Cloudy 10000 ft
Heat Index 80 °F
Dew Point 63 °F
Humidity 59%
Rainfall 0.01 in
Snow Depth 0 in , 1 in , 1 in
UV 5 out of 12
Pollen 8.00 out of 12
Air Quality Not available.
Flu Activity Not available.
METAR KSVC 201835Z AUTO 18008KT 10SM SCT034 BKN055 BKN100 25/17 A3018 RMK AO2

More Conditions Fewer Conditions

Pressure 30.18 in
Visibility 10.0 miles
Clouds Scattered Clouds 3400 ft
Mostly Cloudy 5500 ft
Mostly Cloudy 10000 ft
Heat Index 80 °F
Dew Point 63 °F
Humidity 59%
Rainfall 0.01 in
Snow Depth 0 in , 1 in , 1 in
UV 5 out of 12
Pollen 8.00 out of 12
Air Quality Not available.
Flu Activity Not available.
METAR KSVC 201835Z AUTO 18008KT 10SM SCT034 BKN055 BKN100 25/17 A3018 RMK AO2

More Conditions Fewer Conditions

10-Day Weather Forecast

Almanac

Astronomy

Sep. 20, 2014 Rise Set
Actual Time 6:59 AM MDT 7:12 PM MDT
Civil Twilight 6:35 AM MDT 7:36 PM MDT
Nautical Twilight 6:06 AM MDT 8:05 PM MDT
Astronomical Twilight 5:37 AM MDT 8:34 PM MDT
Moon 3:50 AM MDT 5:10 PM MDT
Length of Visible Light 13h 01m
Length of Day
12h 12m
Tomorrow will be 1m 59s shorter.
Waning Crescent, 11% of the Moon is Illuminated
Today
Waning Crescent
Sep 24
New
Oct 1
First Quarter
Oct 8
Full
Oct 15
Last Quarter

Today's Extremes

State Highs State Lows

Community

WunderPhotos

Upload Photos

1,754,923 photos uploaded!

WunderBlogs® & News

Nearby

Snow Depth

Station Depth Elevation
Quemazon 0 in 9500 ft
Sierra Blanca 1 in 10280 ft
Wesner Springs 1 in 11120 ft
Silver Creek Divide 0 in 9000 ft
North Costilla 0 in 10600 ft

Earthquake Activity

City Distance Mag. Time & Date
No recent earthquake activity has been reported nearby.
Minimum magnitude displayed is 2.5.

Coastal Water Temperatures

Place Temperature
No Stations Reporting

Nearby Weather Stations